KOCF/OCF METAR and TAF weather

Enter ICAO airport designator
Station Type Date Time Source
KOCF METAR 2021/06/22 21:51 UTC NOAA

KOCF 222151Z 32003KT 10SM -RA FEW042 SCT075 BKN090 23/23 A3001 RMK AO2 SLP162 P0006 T02330233 $


Station Type Date Time Source
KOCF Decoded METAR 2021/06/22 21:51 UTC NOAA

Ocala, Ocala International Airport-Jim Taylor Field, FL, United States (KOCF) 29-10N 082-13W
Jun 22, 2021 - 05:51 PM EDT / 2021.06.22 2151 UTC
Wind: from the NW (320 degrees) at 3 MPH (3 KT):0
Visibility: 10 mile(s):0
Sky conditions: mostly cloudy
Weather: light rain
Precipitation last hour: 0.06 inches
Temperature: 73.9 F (23.3 C)
Dew Point: 73.9 F (23.3 C)
Relative Humidity: 100%
Pressure (altimeter): 30.01 in. Hg (1016 hPa)
ob: KOCF 222151Z 32003KT 10SM -RA FEW042 SCT075 BKN090 23/23 A3001 RMK AO2 SLP162 P0006 T02330233
cycle: 22

Station Type Date Time Source
KOCF TAF UTC NOAA

Error!

Example: see airport list